• Join FlightAware (Why Join?)
  • Login
  • US Flag 
11:30PM EDT


 

Airport Tracker/Info


-or-


 

Live Flight TrackerFlight Track Log ✈ SWA3939 ✈ 27-Apr-2013 ✈ KLAS - KDEN

Flight Track Log - Related Links

Times and Time Zones

All times are in EDT time to prevent confusion due to time zone crossing. See the SWA3939 flight status page for this flight to view local times or setup timezone preferences in your user account.

Time Position Orientation Groundspeed Altitude Reporting Facility
EDT Latitude Longitude Course Direction KTS MPH feet Rate Location/Type
07:28PM 36.0753 -115.1844 277° West 196 226 3,200  Level Los Angeles Center
07:30PM 36.0850 -115.2797 277° West 254 292 5,700 2,400 Climbing Los Angeles Center
07:31PM 36.1536 -115.2864 356° North 245 282 8,800 2,160 Climbing Los Angeles Center
07:32PM 36.1881 -115.2111 60° Northeast 263 303 10,500 1,860 Climbing Los Angeles Center
07:33PM 36.1969 -115.1019 84° East 319 367 12,800 2,160 Climbing Los Angeles Center
07:34PM 36.1983 -114.9619 89° East 337 388 15,400 2,280 Climbing Los Angeles Center
07:35PM 36.1997 -114.8086 89° East 369 425 18,000 2,220 Climbing Los Angeles Center
07:36PM 36.1989 -114.6781 90° East 377 434 20,100 1,980 Climbing Los Angeles Center
07:37PM 36.1967 -114.5425 91° East 389 448 22,100 1,860 Climbing Los Angeles Center
07:38PM 36.1958 -114.4053 90° East 396 456 24,000 1,560 Climbing Los Angeles Center
07:39PM 36.1933 -114.2633 91° East 407 468 25,300 1,380 Climbing Los Angeles Center
07:40PM 36.2067 -114.1200 83° East 417 480 26,900 1,620 Climbing Los Angeles Center
07:41PM 36.2297 -113.9483 80° East 420 483 28,700 1,560 Climbing Los Angeles Center
07:42PM 36.2453 -113.8033 82° East 423 487 30,200 1,440 Climbing Los Angeles Center
07:43PM 36.2614 -113.6603 82° East 422 486 31,700 1,260 Climbing Los Angeles Center
07:44PM 36.2783 -113.5189 82° East 416 479 32,800 1,020 Climbing Los Angeles Center
07:45PM 36.2953 -113.3750 82° East 421 484 33,900 1,020 Climbing Los Angeles Center
07:46PM 36.3153 -113.2172 81° East 418 481 35,000 480 Climbing Los Angeles Center
07:47PM 36.3619 -113.0869 66° East 416 479 35,000  Level Los Angeles Center
07:48PM 36.4111 -112.9583 65° Northeast 414 476 35,000  Level Los Angeles Center
07:49PM 36.4594 -112.8275 65° Northeast 418 481 35,000  Level Los Angeles Center
07:51PM 36.5078 -112.6953 66° East 420 483 35,000  Level Los Angeles Center
07:52PM 36.5558 -112.5644 65° Northeast 420 483 35,000  Level Los Angeles Center
07:53PM 36.6036 -112.4339 65° Northeast 418 481 35,000  Level Los Angeles Center
07:54PM 36.6614 -112.2769 65° Northeast 417 480 35,000  Level Los Angeles Center
07:55PM 36.7081 -112.1469 66° East 414 476 35,000  Level Los Angeles Center
07:55PM 36.7264 -112.0956 66° East 415 478 35,000  Level Denver Center
07:56PM 36.7733 -111.9658 66° East 413 475 35,000  Level Denver Center
07:57PM 36.8189 -111.8356 66° East 413 475 35,000  Level Denver Center
07:58PM 36.8672 -111.7039 65° Northeast 415 478 35,000  Level Denver Center
07:59PM 36.9144 -111.5714 66° East 418 481 35,000  Level Denver Center
08:00PM 36.9606 -111.4406 66° East 416 479 35,000  Level Denver Center
08:01PM 37.0142 -111.2839 67° East 412 474 35,000  Level Denver Center
08:02PM 37.0611 -111.1531 66° East 413 475 35,000  Level Denver Center
08:03PM 37.1158 -110.9956 66° East 413 475 35,000  Level Denver Center
08:04PM 37.1619 -110.8633 66° East 415 478 35,000  Level Denver Center
08:05PM 37.2072 -110.7308 67° East 414 476 35,000  Level Denver Center
08:06PM 37.2531 -110.5975 67° East 415 478 35,000  Level Denver Center
08:07PM 37.2981 -110.4653 67° East 413 475 35,000  Level Denver Center
08:08PM 37.3439 -110.3325 66° East 415 478 35,000  Level Denver Center
08:10PM 37.3878 -110.2000 67° East 413 475 35,000  Level Denver Center
08:11PM 37.4367 -110.0594 66° East 412 474 35,000  Level Denver Center
08:12PM 37.4858 -109.9094 68° East 413 475 35,000  Level Denver Center
08:13PM 37.5294 -109.7811 67° East 415 478 35,000  Level Denver Center
08:14PM 37.5714 -109.6539 67° East 411 473 35,000  Level Denver Center
08:15PM 37.6203 -109.5053 67° East 410 472 35,000  Level Denver Center
08:16PM 37.6642 -109.3758 67° East 417 480 35,000  Level Denver Center
08:17PM 37.6986 -109.2672 68° East 417 480 35,000  Level Denver Center
08:18PM 37.7558 -109.0958 67° East 416 479 35,000  Level Denver Center
08:19PM 37.7983 -108.9647 68° East 419 482 35,000  Level Denver Center
08:20PM 37.8625 -108.8217 60° Northeast 420 483 35,000  Level Denver Center
08:21PM 37.9208 -108.7042 58° Northeast 413 475 35,000  Level Denver Center
08:22PM 37.9783 -108.5803 59° Northeast 421 484 35,000  Level Denver Center
08:23PM 38.0472 -108.4425 58° Northeast 418 481 35,000  Level Denver Center
08:24PM 38.1100 -108.3072 59° Northeast 418 481 35,000  Level Denver Center
08:25PM 38.1678 -108.1900 58° Northeast 413 475 35,000  Level Denver Center
08:26PM 38.2244 -108.0725 58° Northeast 410 472 35,000  Level Denver Center
08:27PM 38.2900 -107.9322 59° Northeast 411 473 35,000  Level Denver Center
08:28PM 38.3461 -107.8172 58° Northeast 404 465 35,000  Level Denver Center
08:29PM 38.4131 -107.6775 59° Northeast 411 473 35,000  Level Denver Center
08:30PM 38.4689 -107.5575 59° Northeast 413 475 35,000  Level Denver Center
08:31PM 38.5228 -107.4364 60° Northeast 410 472 35,000  Level Denver Center
08:32PM 38.5856 -107.2953 60° Northeast 411 473 35,000  Level Denver Center
08:33PM 38.6431 -107.1667 60° Northeast 409 471 35,000  Level Denver Center
08:34PM 38.7108 -107.0128 61° Northeast 412 474 35,000  Level Denver Center
08:35PM 38.7678 -106.8856 60° Northeast 412 474 35,000  Level Denver Center
08:36PM 38.8231 -106.7586 61° Northeast 412 474 35,000  Level Denver Center
08:37PM 38.8792 -106.6331 60° Northeast 407 468 35,000  Level Denver Center
08:38PM 38.9372 -106.5092 59° Northeast 404 465 35,000  Level Denver Center
08:39PM 39.0022 -106.3689 59° Northeast 409 471 35,000 -840 Level Denver Center
08:40PM 39.0575 -106.2483 59° Northeast 409 471 33,400 -2,640 Descending Denver Center
08:41PM 39.1167 -106.1114 61° Northeast 415 478 29,700 -3,060 Descending Denver Center
08:42PM 39.1747 -105.9836 60° Northeast 412 474 27,200 -2,400 Descending Denver Center
08:43PM 39.2289 -105.8594 61° Northeast 396 456 24,900 -2,220 Descending Denver Center
08:44PM 39.2808 -105.7400 61° Northeast 383 441 22,700 -1,980 Descending Denver Center
08:45PM 39.3308 -105.6258 60° Northeast 366 421 20,900 -1,800 Descending Denver Center
08:47PM 39.3806 -105.5125 60° Northeast 359 413 19,100 -1,620 Descending Denver Center
08:48PM 39.4003 -105.3683 80° East 373 429 17,700 -1,680 Descending Denver Center
08:49PM 39.4067 -105.2414 86° East 358 412 15,700 -2,100 Descending Denver Center
08:50PM 39.4122 -105.1044 87° East 356 410 13,500 -1,440 Descending Denver Center
08:51PM 39.4194 -104.9844 86° East 340 391 12,800 -840 Descending Denver Center
08:52PM 39.4589 -104.8844 63° Northeast 312 359 11,900 -960 Descending Denver Center
08:53PM 39.4964 -104.7928 62° Northeast 275 316 10,900 -1,020 Descending Denver Center
08:54PM 39.5556 -104.7492 30° Northeast 249 287 9,900 -720 Descending Denver Center
08:55PM 39.6200 -104.7214 18° North 243 280 9,500 -720 Descending Denver Center
08:56PM 39.6817 -104.6925 20° North 219 252 8,500 -1,020 Descending Denver Center
08:57PM 39.7367 -104.6675 19° North 208 239 7,300 -1,080 Descending Denver Center
08:58PM 39.7972 -104.6611 North 172 198 6,100 -960 Descending Denver Center
08:59PM 39.8394 -104.6597 North 161 185 5,400 -720 Descending Denver Center
09:01PM 39.8500 -104.6667 North  Level FlightAware Approximate
09:08PM 39.8617 -104.6732 North  Level Estimated
09:09PM 39.8617 -104.6732 North  Level Estimated